Hurlburt Field, FL

2:53 PM CDT on July 30, 2016 (GMT -0500)
Hurlburt | | Change Station

Elev 39 ft 30.43 °N, 86.69 °W | Updated 10 minutes ago

Light Rain Showers
Light Showers Rain
77 °F
Feels Like 77 °F
N
7
Wind Variable Wind from SW

Today
High -- | Low -- °F
--% Chance of Precip.
Yesterday
High -- | Low -- °F
Precip. -- in
Pressure 30.01 in
Visibility 7.0 miles
Clouds Scattered Clouds 3000 ft
Mostly Cloudy 8500 ft
Mostly Cloudy 18000 ft
Dew Point 72 °F
Humidity 83%
Rainfall 0.52 in
Snow Depth Not available.
6:04 AM 7:41 PM
Waning Crescent, 11% visible
SPECI KHRT 301943Z 22006KT 7SM -SHRA SCT030 BKN085 BKN180 25/22 A3001 RMK AO2A LTG DSNT E RAB14 TSE38 $
Pressure 30.01 in
Visibility 7.0 miles
Clouds Scattered Clouds 3000 ft
Mostly Cloudy 8500 ft
Mostly Cloudy 18000 ft
Dew Point 72 °F
Humidity 83%
Rainfall 0.52 in
Snow Depth Not available.
6:04 AM 7:41 PM
Waning Crescent, 11% visible
SPECI KHRT 301943Z 22006KT 7SM -SHRA SCT030 BKN085 BKN180 25/22 A3001 RMK AO2A LTG DSNT E RAB14 TSE38 $

10-Day Weather Forecast

Almanac

Astronomy

Jul. 30, 2016 Rise Set
Actual Time
Civil Twilight
Nautical Twilight
Astronomical Twilight
Moon
Length of Visible Light
Length of Day
Tomorrow will be .
, % of the Moon is Illuminated

Today's Extremes

State Highs State Lows

Community

WunderPhotos

Upload Photos

1,928,628 photos uploaded!

WunderBlog® & News

Nearby

Air Quality

  Air Quality AQ Index Pollutant
Not available.

Snow Depth

Station Depth Elevation

Earthquake Activity

City Distance Mag. Time & Date
Minimum magnitude displayed is 2.5.

Coastal Water Temperatures

Place Temperature

Stations

Nearby Weather Stations

Station Location Temp. Windchill Dew Point Humidity Wind Precip. Elev Updated Type
                   

Watches & Warnings

There are currently no watches in effect.